createdAt,value
2019-03-22T00:02:18.904Z,54.70
2019-03-22T00:04:48.044Z,54.60
2019-03-22T00:07:17.585Z,54.70
2019-03-22T00:09:46.703Z,54.80
2019-03-22T00:12:15.888Z,54.80
2019-03-22T00:14:45.099Z,54.80
2019-03-22T00:17:14.209Z,54.80
2019-03-22T00:19:43.492Z,54.90
2019-03-22T00:22:12.601Z,54.90
2019-03-22T00:24:41.703Z,54.90
2019-03-22T00:27:16.547Z,54.90
2019-03-22T00:29:41.819Z,54.80
2019-03-22T00:42:01.792Z,55.10
2019-03-22T00:50:49.905Z,55.30
2019-03-22T00:53:30.885Z,55.30
2019-03-22T00:56:11.630Z,55.30
2019-03-22T00:58:52.302Z,55.30
2019-03-22T01:01:32.999Z,55.10
2019-03-22T01:04:13.681Z,55.00
2019-03-22T01:06:43.477Z,55.30
2019-03-22T01:12:41.266Z,55.20
2019-03-22T01:15:30.052Z,55.30
2019-03-22T01:18:18.805Z,55.20
2019-03-22T01:21:07.343Z,55.20
2019-03-22T01:23:55.934Z,55.30
2019-03-22T01:26:44.453Z,55.20
2019-03-22T01:29:33.003Z,55.30
2019-03-22T01:32:21.268Z,55.20
2019-03-22T01:35:09.490Z,55.20
2019-03-22T01:37:58.168Z,55.30
2019-03-22T01:40:46.643Z,55.30
2019-03-22T01:46:42.734Z,55.30
2019-03-22T01:49:31.309Z,55.20
2019-03-22T01:52:19.593Z,55.40
2019-03-22T01:55:08.399Z,55.20
2019-03-22T01:57:57.249Z,55.30
2019-03-22T02:00:45.800Z,55.20
2019-03-22T02:03:34.865Z,55.20
2019-03-22T02:06:23.108Z,55.20
2019-03-22T02:09:11.342Z,55.80
2019-03-22T02:11:59.568Z,55.30
2019-03-22T02:14:48.082Z,55.20
2019-03-22T02:17:36.603Z,55.20
2019-03-22T02:20:24.861Z,55.20
2019-03-22T02:23:13.359Z,55.20
2019-03-22T02:26:01.708Z,55.30
2019-03-22T02:28:49.906Z,55.40
2019-03-22T02:31:38.435Z,55.50
2019-03-22T02:34:26.812Z,55.60
2019-03-22T02:37:15.076Z,55.30
2019-03-22T02:39:56.031Z,55.30
2019-03-22T02:42:36.987Z,55.20
2019-03-22T02:45:17.743Z,55.20
2019-03-22T02:47:58.768Z,55.20
2019-03-22T02:50:39.723Z,55.20
2019-03-22T02:53:21.099Z,55.20
2019-03-22T02:56:01.817Z,55.10
2019-03-22T02:58:43.242Z,55.20
2019-03-22T03:01:24.217Z,55.30
2019-03-22T03:04:05.417Z,55.20
2019-03-22T03:06:45.828Z,55.20
2019-03-22T03:09:26.522Z,55.30
2019-03-22T03:12:07.321Z,55.30
2019-03-22T03:14:48.130Z,55.50
2019-03-22T03:17:29.002Z,55.40
2019-03-22T03:20:09.935Z,55.40
2019-03-22T03:22:50.571Z,55.40
2019-03-22T03:25:31.440Z,55.30
2019-03-22T03:28:12.230Z,55.40
2019-03-22T03:30:53.048Z,55.40
2019-03-22T03:33:33.946Z,55.30
2019-03-22T03:36:14.480Z,55.50
2019-03-22T03:38:55.814Z,55.50
2019-03-22T03:41:36.751Z,55.40
2019-03-22T03:44:18.143Z,55.40
2019-03-22T03:46:58.862Z,55.40
2019-03-22T03:49:39.394Z,55.40
2019-03-22T03:55:32.041Z,56.20
2019-03-22T03:58:12.465Z,55.50
2019-03-22T04:00:53.264Z,55.50
2019-03-22T04:03:34.311Z,55.50
2019-03-22T04:06:15.296Z,55.50
2019-03-22T04:08:56.340Z,55.50
2019-03-22T04:11:37.256Z,55.50
2019-03-22T04:14:17.647Z,55.60
2019-03-22T04:16:59.089Z,55.70
2019-03-22T04:19:40.584Z,55.70
2019-03-22T04:25:04.032Z,55.60
2019-03-22T04:27:45.075Z,55.60
2019-03-22T04:30:25.888Z,55.60
2019-03-22T04:33:07.165Z,55.60
2019-03-22T04:35:47.794Z,55.50
2019-03-22T04:38:28.806Z,55.50
2019-03-22T04:44:06.398Z,55.60
2019-03-22T04:46:47.461Z,55.70
2019-03-22T04:49:27.908Z,55.70
2019-03-22T04:52:08.571Z,55.80
2019-03-22T04:54:49.647Z,55.80
2019-03-22T04:57:30.885Z,55.60
2019-03-22T05:00:11.415Z,55.60
2019-03-22T05:02:52.062Z,55.70
2019-03-22T05:05:33.095Z,55.70
2019-03-22T05:08:14.252Z,55.70
2019-03-22T05:11:00.207Z,55.80
2019-03-22T05:13:39.205Z,55.70
2019-03-22T05:16:56.471Z,55.70
2019-03-22T05:22:26.237Z,55.60
2019-03-22T05:25:14.551Z,55.70
2019-03-22T05:28:03.460Z,55.80
2019-03-22T05:31:10.738Z,55.90
2019-03-22T05:37:17.752Z,55.80
2019-03-22T05:40:03.062Z,55.80
2019-03-22T05:42:56.683Z,55.80
2019-03-22T05:45:26.875Z,55.80
2019-03-22T05:50:53.220Z,55.80
2019-03-22T05:57:12.828Z,55.80
2019-03-22T05:59:53.630Z,55.80
2019-03-22T06:02:42.091Z,55.80
2019-03-22T06:05:30.823Z,55.80
2019-03-22T06:08:19.431Z,55.80
2019-03-22T06:11:07.909Z,55.70
2019-03-22T06:13:56.395Z,55.60
2019-03-22T06:16:44.591Z,55.80
2019-03-22T06:19:32.896Z,55.70
2019-03-22T06:22:21.639Z,55.60
2019-03-22T06:25:09.847Z,55.70
2019-03-22T06:27:58.750Z,55.60
2019-03-22T06:30:47.011Z,55.70
2019-03-22T06:33:35.954Z,55.60
2019-03-22T06:36:24.320Z,55.60
2019-03-22T06:39:05.368Z,55.60
2019-03-22T06:41:47.071Z,55.50
2019-03-22T06:44:28.011Z,55.70
2019-03-22T06:47:11.133Z,55.50
2019-03-22T06:49:52.172Z,55.40
2019-03-22T06:52:34.462Z,55.40
2019-03-22T06:55:15.666Z,55.50
2019-03-22T06:57:56.539Z,55.40
2019-03-22T07:00:37.205Z,55.20
2019-03-22T07:03:18.032Z,55.20
2019-03-22T07:05:59.287Z,55.20
2019-03-22T07:08:41.563Z,55.20
2019-03-22T07:11:22.560Z,55.20
2019-03-22T07:14:03.668Z,55.00
2019-03-22T07:16:44.880Z,55.00
2019-03-22T07:19:25.356Z,54.90
2019-03-22T07:22:06.240Z,54.90
2019-03-22T07:24:47.032Z,55.00
2019-03-22T07:27:28.248Z,54.90
2019-03-22T07:30:18.014Z,54.80
2019-03-22T07:32:52.158Z,54.70
2019-03-22T07:35:33.132Z,54.60
2019-03-22T07:38:14.147Z,54.50
2019-03-22T07:40:54.891Z,54.60
2019-03-22T07:43:36.415Z,54.60
2019-03-22T07:46:16.932Z,54.50
2019-03-22T07:48:57.574Z,54.30
2019-03-22T07:51:38.964Z,54.10
2019-03-22T07:54:19.599Z,54.20
2019-03-22T07:57:00.770Z,54.60
2019-03-22T07:59:41.832Z,54.00
2019-03-22T08:02:22.311Z,53.70
2019-03-22T08:05:03.352Z,53.60
2019-03-22T08:07:44.446Z,53.40
2019-03-22T08:10:25.988Z,53.20
2019-03-22T08:13:06.898Z,53.00
2019-03-22T08:15:48.515Z,52.80
2019-03-22T08:18:29.824Z,52.50
2019-03-22T08:21:10.880Z,52.40
2019-03-22T08:23:51.590Z,52.20
2019-03-22T08:26:33.258Z,51.70
2019-03-22T08:29:14.300Z,51.90
2019-03-22T08:31:55.800Z,51.90
2019-03-22T08:34:37.432Z,51.70
2019-03-22T08:37:18.189Z,51.80
2019-03-22T08:39:58.699Z,51.80
2019-03-22T08:42:29.117Z,51.80
2019-03-22T08:45:17.685Z,51.60
2019-03-22T08:48:05.948Z,51.40
2019-03-22T08:50:54.271Z,51.10
2019-03-22T08:53:54.636Z,50.80
2019-03-22T08:56:32.643Z,50.80
2019-03-22T08:59:20.937Z,50.60
2019-03-22T09:01:51.008Z,50.60
2019-03-22T09:04:20.223Z,50.70
2019-03-22T09:06:52.547Z,50.70
2019-03-22T09:09:22.029Z,50.90
2019-03-22T09:12:02.395Z,50.90
2019-03-22T09:14:55.569Z,50.60
2019-03-22T09:17:46.540Z,50.60
2019-03-22T09:28:51.085Z,49.90
2019-03-22T09:31:39.382Z,49.80
2019-03-22T09:34:33.612Z,49.60
2019-03-22T09:39:39.256Z,49.30
2019-03-22T09:42:20.321Z,49.00
2019-03-22T09:45:01.055Z,48.50
2019-03-22T09:47:42.031Z,48.20
2019-03-22T09:50:22.524Z,47.80
2019-03-22T09:53:03.848Z,47.50
2019-03-22T09:55:45.051Z,47.30
2019-03-22T09:58:26.430Z,47.00
2019-03-22T10:01:07.121Z,46.70
2019-03-22T10:03:47.618Z,46.40
2019-03-22T10:06:28.464Z,46.10
2019-03-22T10:09:09.095Z,45.80
2019-03-22T10:11:49.719Z,45.60
2019-03-22T10:14:31.486Z,45.20
2019-03-22T10:17:12.084Z,44.80
2019-03-22T10:19:42.241Z,44.30
2019-03-22T10:22:31.666Z,43.90
2019-03-22T10:25:28.526Z,43.50
2019-03-22T10:28:11.380Z,43.30
2019-03-22T10:31:12.920Z,43.00
2019-03-22T10:34:02.476Z,42.70
2019-03-22T10:36:32.321Z,42.40
2019-03-22T10:42:18.274Z,41.70
2019-03-22T10:44:56.971Z,41.50
2019-03-22T10:47:32.338Z,41.10
2019-03-22T10:50:04.272Z,40.80
2019-03-22T10:52:35.287Z,40.50
2019-03-22T10:55:23.098Z,40.10
2019-03-22T10:57:56.475Z,39.90
2019-03-22T11:01:27.109Z,39.60
2019-03-22T11:04:10.636Z,39.20
2019-03-22T11:06:59.396Z,38.80
2019-03-22T11:09:39.229Z,38.40
2019-03-22T11:12:12.375Z,38.00
2019-03-22T11:14:42.883Z,37.80
2019-03-22T11:17:46.018Z,37.30
2019-03-22T11:20:07.198Z,37.00
2019-03-22T11:23:01.551Z,36.70
2019-03-22T11:25:32.083Z,36.30
2019-03-22T11:28:02.028Z,35.90
2019-03-22T11:30:31.312Z,35.40
2019-03-22T11:33:00.588Z,33.40
2019-03-22T11:35:30.254Z,31.40
2019-03-22T11:38:00.039Z,29.70
2019-03-22T11:40:29.533Z,28.60
2019-03-22T11:43:07.981Z,27.50
2019-03-22T11:45:31.007Z,26.60
2019-03-22T11:48:00.610Z,25.90
2019-03-22T11:50:29.975Z,25.20
2019-03-22T11:53:34.548Z,24.40
2019-03-22T11:56:03.719Z,23.70
2019-03-22T11:58:32.937Z,22.90
2019-03-22T12:01:02.195Z,22.60
2019-03-22T12:03:31.476Z,22.10
2019-03-22T12:06:00.694Z,21.80
2019-03-22T12:08:29.903Z,21.40
2019-03-22T12:11:18.222Z,21.20
2019-03-22T12:13:47.450Z,20.60
2019-03-22T12:16:16.696Z,20.10
2019-03-22T12:18:46.612Z,19.50
2019-03-22T12:21:16.340Z,19.40
2019-03-22T12:23:45.722Z,19.40
2019-03-22T12:26:15.344Z,19.20
2019-03-22T12:28:45.038Z,18.80
2019-03-22T12:31:14.765Z,18.60
2019-03-22T12:33:44.623Z,18.70
2019-03-22T12:36:13.928Z,18.50
2019-03-22T12:38:43.542Z,18.10
2019-03-22T12:41:13.197Z,17.80
2019-03-22T12:43:43.113Z,17.30
2019-03-22T12:46:13.408Z,17.40
2019-03-22T12:48:43.089Z,17.50
2019-03-22T12:51:13.259Z,16.90
2019-03-22T12:53:44.051Z,16.00
2019-03-22T12:59:28.132Z,15.30
2019-03-22T13:02:16.690Z,15.40
2019-03-22T13:05:05.481Z,14.80
2019-03-22T13:07:54.442Z,14.60
2019-03-22T13:13:37.003Z,14.60
2019-03-22T13:16:25.810Z,14.50
2019-03-22T13:19:14.010Z,14.50
2019-03-22T13:22:02.266Z,14.70
2019-03-22T13:24:50.763Z,14.60
2019-03-22T13:27:39.611Z,14.50
2019-03-22T13:30:47.095Z,14.40
2019-03-22T13:33:35.350Z,14.50
2019-03-22T13:36:23.905Z,14.40
2019-03-22T13:39:12.182Z,14.20
2019-03-22T13:42:00.794Z,14.10
2019-03-22T13:44:49.409Z,14.20
2019-03-22T13:47:38.144Z,14.10
2019-03-22T13:50:26.385Z,14.20
2019-03-22T13:56:22.149Z,14.40
2019-03-22T13:59:10.394Z,14.40
2019-03-22T14:05:14.472Z,14.60
2019-03-22T14:08:03.054Z,15.20
2019-03-22T14:10:51.595Z,16.40
2019-03-22T14:13:40.123Z,17.50
2019-03-22T14:16:28.338Z,18.40
2019-03-22T14:19:16.951Z,18.80
2019-03-22T14:22:08.855Z,19.80
2019-03-22T14:24:57.414Z,20.60
2019-03-22T14:27:46.151Z,21.00
2019-03-22T14:30:34.370Z,20.50
2019-03-22T14:33:22.590Z,19.60
2019-03-22T14:36:11.122Z,18.40
2019-03-22T14:38:59.361Z,17.20
2019-03-22T14:41:40.039Z,16.70
2019-03-22T14:44:25.556Z,16.30
2019-03-22T14:46:53.354Z,15.90
2019-03-22T14:53:00.046Z,15.60
2019-03-22T14:55:48.542Z,15.50
2019-03-22T14:58:37.347Z,15.40
2019-03-22T15:01:25.558Z,15.50
2019-03-22T15:04:14.047Z,15.50
2019-03-22T15:07:02.532Z,15.60
2019-03-22T15:09:51.050Z,15.80
2019-03-22T15:12:39.327Z,16.00
2019-03-22T15:15:46.611Z,16.10
2019-03-22T15:18:46.310Z,16.30
2019-03-22T15:21:54.119Z,16.70
2019-03-22T15:25:01.928Z,17.20
2019-03-22T15:28:03.832Z,18.30
2019-03-22T15:31:11.414Z,19.70
2019-03-22T15:34:18.946Z,20.80
2019-03-22T15:37:26.369Z,21.40
2019-03-22T15:40:07.131Z,21.00
2019-03-22T15:42:48.547Z,20.60
2019-03-22T15:45:30.328Z,20.20
2019-03-22T15:48:11.363Z,20.00
2019-03-22T15:50:52.072Z,19.90
2019-03-22T15:53:33.574Z,20.00
2019-03-22T15:56:14.471Z,20.20
2019-03-22T15:58:55.472Z,20.90
2019-03-22T16:01:24.658Z,22.00
2019-03-22T16:04:12.942Z,23.30
2019-03-22T16:07:01.171Z,24.30
2019-03-22T16:09:49.419Z,25.30
2019-03-22T16:12:37.643Z,26.30
2019-03-22T16:15:26.147Z,27.00
2019-03-22T16:18:14.347Z,27.80
2019-03-22T16:21:02.613Z,28.80
2019-03-22T16:23:50.831Z,28.70
2019-03-22T16:26:39.621Z,29.10
2019-03-22T16:29:28.381Z,29.60
2019-03-22T16:32:16.649Z,29.80
2019-03-22T16:35:05.703Z,30.30
2019-03-22T16:37:53.934Z,30.60
2019-03-22T16:40:34.647Z,30.80
2019-03-22T16:43:15.934Z,31.20
2019-03-22T16:45:56.931Z,31.40
2019-03-22T16:48:37.851Z,31.90
2019-03-22T16:51:19.234Z,32.10
2019-03-22T16:54:00.841Z,32.40
2019-03-22T16:56:41.724Z,32.80
2019-03-22T16:59:22.980Z,32.90
2019-03-22T17:02:04.067Z,33.20
2019-03-22T17:04:45.055Z,33.40
2019-03-22T17:07:25.519Z,33.80
2019-03-22T17:10:06.309Z,34.10
2019-03-22T17:12:47.275Z,34.30
2019-03-22T17:15:27.947Z,34.60
2019-03-22T17:18:08.676Z,34.90
2019-03-22T17:20:49.663Z,33.20
2019-03-22T17:23:30.513Z,34.20
2019-03-22T17:26:11.459Z,35.70
2019-03-22T17:28:51.879Z,35.70
2019-03-22T17:31:32.982Z,35.80
2019-03-22T17:34:14.375Z,36.10
2019-03-22T17:36:55.947Z,36.40
2019-03-22T17:39:36.764Z,36.80
2019-03-22T17:42:17.533Z,38.20
2019-03-22T17:44:58.288Z,38.40
2019-03-22T17:47:39.231Z,38.50
2019-03-22T17:53:06.940Z,38.00
2019-03-22T17:55:36.435Z,37.80
2019-03-22T17:58:06.349Z,37.80
2019-03-22T18:00:54.690Z,38.30
2019-03-22T18:03:42.999Z,38.50
2019-03-22T18:06:12.486Z,38.50
2019-03-22T18:09:01.094Z,38.50
2019-03-22T18:11:49.587Z,38.60
2019-03-22T18:14:37.858Z,38.80
2019-03-22T18:17:26.343Z,39.00
2019-03-22T18:19:55.538Z,39.40
2019-03-22T18:22:43.826Z,39.60
2019-03-22T18:25:32.050Z,39.40
2019-03-22T18:28:20.639Z,39.80
2019-03-22T18:31:09.167Z,39.90
2019-03-22T18:33:58.062Z,39.90
2019-03-22T18:36:47.028Z,40.10
2019-03-22T18:39:35.541Z,40.30
2019-03-22T18:42:16.184Z,40.40
2019-03-22T18:44:56.779Z,40.60
2019-03-22T18:47:37.823Z,41.00
2019-03-22T18:50:19.032Z,40.60
2019-03-22T18:53:00.126Z,40.20
2019-03-22T18:55:41.094Z,39.90
2019-03-22T18:58:23.718Z,39.70
2019-03-22T19:01:04.807Z,39.60
2019-03-22T19:06:35.483Z,39.60
2019-03-22T19:09:16.077Z,39.60
2019-03-22T19:11:56.711Z,39.50
2019-03-22T19:14:37.702Z,39.60
2019-03-22T19:17:09.112Z,39.70
2019-03-22T19:19:38.347Z,39.70
2019-03-22T19:22:07.559Z,39.70
2019-03-22T19:24:36.818Z,39.80
2019-03-22T19:27:06.163Z,39.90
2019-03-22T19:29:35.532Z,40.00
2019-03-22T19:32:13.347Z,40.00
2019-03-22T19:34:54.883Z,40.10
2019-03-22T19:37:24.091Z,40.20
2019-03-22T19:39:53.303Z,40.40
2019-03-22T19:42:22.584Z,40.40
2019-03-22T19:44:52.556Z,40.40
2019-03-22T19:47:22.011Z,40.50
2019-03-22T19:49:51.197Z,40.60
2019-03-22T19:52:20.396Z,40.60
2019-03-22T19:54:49.855Z,40.70
2019-03-22T19:57:19.314Z,40.80
2019-03-22T19:59:49.031Z,40.90
2019-03-22T20:02:37.510Z,40.90
2019-03-22T20:05:29.511Z,40.90
2019-03-22T20:07:58.679Z,41.10
2019-03-22T20:10:27.851Z,41.20
2019-03-22T20:12:57.107Z,41.20
2019-03-22T20:15:26.323Z,41.30
2019-03-22T20:17:55.536Z,41.50
2019-03-22T20:20:25.029Z,41.60
2019-03-22T20:22:55.220Z,41.60
2019-03-22T20:25:25.106Z,41.70
2019-03-22T20:28:13.638Z,41.70
2019-03-22T20:31:02.395Z,41.80
2019-03-22T20:33:36.345Z,41.90
2019-03-22T20:36:06.192Z,42.00
2019-03-22T20:38:37.784Z,42.00
2019-03-22T20:41:23.017Z,42.20
2019-03-22T20:43:52.239Z,42.30
2019-03-22T20:46:28.756Z,42.30
2019-03-22T20:49:15.716Z,42.40
2019-03-22T20:51:45.370Z,42.50
2019-03-22T20:54:14.967Z,42.50
2019-03-22T20:57:03.444Z,43.20
2019-03-22T20:59:32.869Z,42.70
2019-03-22T21:02:21.641Z,43.30
2019-03-22T21:04:51.019Z,44.80
2019-03-22T21:07:20.369Z,44.20
2019-03-22T21:09:49.801Z,44.00
2019-03-22T21:12:19.252Z,43.80
2019-03-22T21:14:48.830Z,43.80
2019-03-22T21:17:19.428Z,43.90
2019-03-22T21:19:49.051Z,43.70
2019-03-22T21:22:37.886Z,43.60
2019-03-22T21:25:07.174Z,43.60
2019-03-22T21:27:37.665Z,43.50
2019-03-22T21:30:25.957Z,43.50
2019-03-22T21:33:14.326Z,43.40
2019-03-22T21:35:43.561Z,43.50
2019-03-22T21:38:12.761Z,43.70
2019-03-22T21:40:42.153Z,43.90
2019-03-22T21:43:22.556Z,44.20
2019-03-22T21:45:52.101Z,44.10
2019-03-22T21:48:40.870Z,44.10
2019-03-22T21:51:29.517Z,43.90
2019-03-22T21:54:18.316Z,43.90
2019-03-22T21:57:06.595Z,44.10
2019-03-22T21:59:54.853Z,44.20
2019-03-22T22:02:44.028Z,44.30
2019-03-22T22:05:32.560Z,44.20
2019-03-22T22:08:01.884Z,44.40
2019-03-22T22:10:59.398Z,44.60
2019-03-22T22:13:22.503Z,44.50
2019-03-22T22:15:52.213Z,44.60
2019-03-22T22:18:40.851Z,44.60
2019-03-22T22:21:10.486Z,44.70
2019-03-22T22:23:40.762Z,44.70
2019-03-22T22:26:10.492Z,44.50
2019-03-22T22:28:39.805Z,44.40
2019-03-22T22:34:04.291Z,45.00
2019-03-22T22:36:52.564Z,45.20
2019-03-22T22:39:40.860Z,45.60
2019-03-22T22:42:21.329Z,45.60
2019-03-22T22:44:50.839Z,45.50
2019-03-22T22:47:39.382Z,45.60
2019-03-22T22:50:09.120Z,45.50
2019-03-22T22:52:58.013Z,45.50
2019-03-22T22:55:46.286Z,45.60
2019-03-22T22:58:15.729Z,45.50
2019-03-22T23:00:45.031Z,45.40
2019-03-22T23:03:33.285Z,45.40
2019-03-22T23:06:21.833Z,45.30
2019-03-22T23:08:51.497Z,45.30
2019-03-22T23:11:21.303Z,45.50
2019-03-22T23:13:50.863Z,45.40
2019-03-22T23:16:39.472Z,45.50
2019-03-22T23:19:09.247Z,45.60
2019-03-22T23:21:39.058Z,45.60
2019-03-22T23:24:08.251Z,45.70
2019-03-22T23:26:37.438Z,45.70
2019-03-22T23:29:06.639Z,45.60
2019-03-22T23:31:36.565Z,45.80
2019-03-22T23:40:00.300Z,45.90
2019-03-22T23:42:30.362Z,47.00
2019-03-22T23:44:59.575Z,47.30
2019-03-22T23:47:28.831Z,47.50
2019-03-22T23:50:17.279Z,47.60
2019-03-22T23:53:05.571Z,47.70
2019-03-22T23:55:34.862Z,47.90
2019-03-22T23:58:04.119Z,48.00
